createdAt,value
2022-10-10T00:00:53.421Z,7.7
2022-10-10T00:01:57.887Z,7.7
2022-10-10T00:03:02.247Z,7.7
2022-10-10T00:04:06.576Z,7.7
2022-10-10T00:05:10.909Z,7.7
2022-10-10T00:06:15.344Z,7.7
2022-10-10T00:07:19.613Z,7.6
2022-10-10T00:08:23.800Z,7.6
2022-10-10T00:09:28.017Z,7.7
2022-10-10T00:10:32.341Z,7.6
2022-10-10T00:11:36.593Z,7.6
2022-10-10T00:12:54.034Z,7.6
2022-10-10T00:13:58.300Z,7.6
2022-10-10T00:15:02.785Z,7.6
2022-10-10T00:16:09.981Z,7.5
2022-10-10T00:17:14.232Z,7.5
2022-10-10T00:18:18.605Z,7.5
2022-10-10T00:19:22.727Z,7.5
2022-10-10T00:20:27.068Z,7.5
2022-10-10T00:21:31.389Z,7.5
2022-10-10T00:22:35.613Z,7.6
2022-10-10T00:23:39.922Z,7.5
2022-10-10T00:24:44.217Z,7.5
2022-10-10T00:25:48.448Z,7.3
2022-10-10T00:26:52.804Z,7.4
2022-10-10T00:27:57.213Z,7.5
2022-10-10T00:29:01.593Z,7.5
2022-10-10T00:30:06.013Z,7.6
2022-10-10T00:31:10.561Z,7.4
2022-10-10T00:32:14.844Z,7.5
2022-10-10T00:33:19.182Z,7.5
2022-10-10T00:34:23.493Z,7.5
2022-10-10T00:35:27.640Z,7.5
2022-10-10T00:36:32.148Z,7.5
2022-10-10T00:37:36.441Z,7.5
2022-10-10T00:38:40.641Z,7.5
2022-10-10T00:41:35.585Z,7.6
2022-10-10T00:42:39.920Z,7.5
2022-10-10T00:43:44.164Z,7.6
2022-10-10T00:44:58.421Z,7.6
2022-10-10T00:46:12.808Z,7.6
2022-10-10T00:47:17.151Z,7.6
2022-10-10T00:48:21.385Z,7.6
2022-10-10T00:49:26.500Z,7.6
2022-10-10T00:50:31.084Z,7.6
2022-10-10T00:51:35.249Z,7.6
2022-10-10T00:52:39.444Z,7.6
2022-10-10T00:53:43.773Z,7.6
2022-10-10T00:54:47.858Z,7.6
2022-10-10T00:58:45.605Z,7.6
2022-10-10T00:59:49.790Z,7.6
2022-10-10T01:00:53.974Z,7.6
2022-10-10T01:01:58.231Z,7.6
2022-10-10T01:03:02.376Z,7.6
2022-10-10T01:04:09.426Z,7.6
2022-10-10T01:05:23.805Z,7.6
2022-10-10T01:06:28.129Z,7.4
2022-10-10T01:07:32.440Z,7.4
2022-10-10T01:08:39.700Z,7.4
2022-10-10T01:09:43.912Z,7.4
2022-10-10T01:10:48.088Z,7.4
2022-10-10T01:12:02.548Z,7.4
2022-10-10T01:13:17.024Z,7.3
2022-10-10T01:14:26.641Z,7.5
2022-10-10T01:15:42.402Z,7.3
2022-10-10T01:16:56.984Z,7.3
2022-10-10T01:18:06.458Z,7.4
2022-10-10T01:19:13.937Z,7.2
2022-10-10T01:20:23.284Z,7.2
2022-10-10T01:21:32.436Z,7.2
2022-10-10T01:22:46.832Z,7.3
2022-10-10T01:24:03.397Z,7.3
2022-10-10T01:25:17.864Z,7.3
2022-10-10T01:26:27.308Z,7.3
2022-10-10T01:27:36.472Z,7.2
2022-10-10T01:28:48.700Z,7.3
2022-10-10T01:29:57.968Z,7.1
2022-10-10T01:31:07.233Z,7.2
2022-10-10T01:32:11.448Z,7.2
2022-10-10T01:33:23.856Z,7.2
2022-10-10T01:34:28.156Z,7.2
2022-10-10T01:35:42.616Z,7.2
2022-10-10T01:36:52.000Z,7.2
2022-10-10T01:38:04.885Z,7.2
2022-10-10T01:39:14.216Z,7.2
2022-10-10T01:40:28.849Z,7.2
2022-10-10T01:41:36.004Z,7.2
2022-10-10T01:42:40.730Z,7.1
2022-10-10T01:43:47.948Z,7.1
2022-10-10T01:44:55.781Z,7.2
2022-10-10T01:46:00.151Z,7.2
2022-10-10T01:47:09.677Z,7.1
2022-10-10T01:48:14.147Z,7
2022-10-10T01:49:18.456Z,7.1
2022-10-10T01:50:25.131Z,7.2
2022-10-10T01:51:29.831Z,7.2
2022-10-10T01:52:44.238Z,7.2
2022-10-10T01:53:58.736Z,7.2
2022-10-10T01:55:13.188Z,7.2
2022-10-10T01:56:25.231Z,7.2
2022-10-10T01:57:34.492Z,7.2
2022-10-10T01:58:43.855Z,7.2
2022-10-10T01:59:53.124Z,7.2
2022-10-10T02:01:05.368Z,7.2
2022-10-10T02:02:17.524Z,7.2
2022-10-10T02:03:27.731Z,7.2
2022-10-10T02:04:32.137Z,7.2
2022-10-10T02:06:47.672Z,7.1
2022-10-10T02:07:57.079Z,7
2022-10-10T02:09:03.744Z,7.1
2022-10-10T02:10:08.143Z,7.1
2022-10-10T02:11:12.368Z,7.2
2022-10-10T02:12:16.581Z,7.2
2022-10-10T02:13:20.759Z,7.2
2022-10-10T02:14:25.039Z,7.2
2022-10-10T02:15:29.199Z,7.1
2022-10-10T02:16:40.877Z,7
2022-10-10T02:17:45.207Z,7.1
2022-10-10T02:18:49.484Z,7.1
2022-10-10T02:19:54.864Z,7.1
2022-10-10T02:20:59.072Z,7.1
2022-10-10T02:22:03.423Z,7
2022-10-10T02:23:08.092Z,7
2022-10-10T02:24:14.884Z,7.1
2022-10-10T02:25:19.559Z,7.1
2022-10-10T02:26:23.831Z,7.2
2022-10-10T02:27:28.121Z,7.1
2022-10-10T02:28:37.695Z,7.1
2022-10-10T02:29:49.652Z,7.1
2022-10-10T02:30:54.188Z,7.1
2022-10-10T02:31:58.667Z,7.1
2022-10-10T02:33:02.897Z,7.1
2022-10-10T02:34:07.240Z,7.1
2022-10-10T02:35:14.143Z,7.1
2022-10-10T02:36:23.623Z,7.1
2022-10-10T02:37:28.033Z,7.2
2022-10-10T02:38:32.383Z,7.2
2022-10-10T02:39:36.631Z,7.2
2022-10-10T02:40:40.983Z,7.1
2022-10-10T02:41:45.175Z,7.1
2022-10-10T02:42:49.812Z,7.1
2022-10-10T02:43:53.659Z,7.1
2022-10-10T02:45:00.371Z,7
2022-10-10T02:47:57.412Z,7.1
2022-10-10T02:49:01.788Z,7
2022-10-10T02:50:09.255Z,7
2022-10-10T02:51:13.672Z,7.1
2022-10-10T02:52:18.058Z,7.1
2022-10-10T02:53:24.103Z,7
2022-10-10T02:54:32.568Z,7
2022-10-10T02:55:39.268Z,7.1
2022-10-10T02:56:43.924Z,7
2022-10-10T02:57:49.503Z,7.1
2022-10-10T02:58:53.807Z,7.1
2022-10-10T02:59:58.159Z,7.1
2022-10-10T03:01:02.339Z,7.1
2022-10-10T03:02:06.596Z,7.1
2022-10-10T03:03:10.967Z,7.1
2022-10-10T03:04:15.475Z,7.1
2022-10-10T03:05:24.395Z,7.1
2022-10-10T03:06:28.807Z,7
2022-10-10T03:07:33.272Z,7.1
2022-10-10T03:08:37.888Z,7.1
2022-10-10T03:09:42.110Z,7
2022-10-10T03:10:46.296Z,7.1
2022-10-10T03:11:55.647Z,7.1
2022-10-10T03:12:59.975Z,7.1
2022-10-10T03:14:04.238Z,7.1
2022-10-10T03:15:11.578Z,7.1
2022-10-10T03:16:12.975Z,7
2022-10-10T03:17:17.191Z,7.1
2022-10-10T03:18:21.491Z,7
2022-10-10T03:19:25.691Z,7
2022-10-10T03:20:29.995Z,7
2022-10-10T03:21:34.275Z,7
2022-10-10T03:22:38.680Z,7
2022-10-10T03:23:43.313Z,7
2022-10-10T03:24:47.568Z,7
2022-10-10T03:25:51.847Z,7
2022-10-10T03:26:58.603Z,6.9
2022-10-10T03:28:03.035Z,6.9
2022-10-10T03:29:07.253Z,6.9
2022-10-10T03:30:11.535Z,6.8
2022-10-10T03:31:15.967Z,6.9
2022-10-10T03:32:20.239Z,6.9
2022-10-10T03:33:24.459Z,6.9
2022-10-10T03:34:33.332Z,7
2022-10-10T03:35:37.579Z,7
2022-10-10T03:36:41.806Z,7.1
2022-10-10T03:37:48.246Z,7
2022-10-10T03:38:52.571Z,7
2022-10-10T03:39:56.846Z,7
2022-10-10T03:41:01.134Z,7
2022-10-10T03:42:05.399Z,6.9
2022-10-10T03:43:09.715Z,7
2022-10-10T03:44:16.329Z,7
2022-10-10T03:45:23.875Z,7.1
2022-10-10T03:46:31.926Z,7.1
2022-10-10T03:47:38.270Z,7.1
2022-10-10T03:48:42.451Z,7.1
2022-10-10T03:49:46.622Z,7.1
2022-10-10T03:50:51.050Z,7
2022-10-10T03:51:55.326Z,7.1
2022-10-10T03:52:59.602Z,7
2022-10-10T03:54:03.879Z,6.9
2022-10-10T03:55:08.156Z,7
2022-10-10T03:56:12.499Z,7
2022-10-10T03:57:16.883Z,7
2022-10-10T03:58:23.757Z,7
2022-10-10T03:59:28.462Z,7
2022-10-10T04:00:32.795Z,7
2022-10-10T04:01:41.528Z,6.9
2022-10-10T04:02:45.550Z,6.9
2022-10-10T04:03:51.961Z,6.9
2022-10-10T04:04:54.382Z,6.9
2022-10-10T04:05:59.634Z,6.9
2022-10-10T04:07:08.502Z,6.9
2022-10-10T04:08:12.803Z,6.9
2022-10-10T04:09:17.083Z,6.8
2022-10-10T04:10:21.366Z,6.9
2022-10-10T04:11:25.654Z,6.9
2022-10-10T04:12:29.970Z,6.8
2022-10-10T04:13:34.352Z,6.8
2022-10-10T04:14:38.596Z,6.7
2022-10-10T04:15:42.806Z,6.8
2022-10-10T04:16:48.947Z,6.8
2022-10-10T04:17:53.274Z,6.7
2022-10-10T04:18:57.970Z,6.8
2022-10-10T04:20:02.262Z,6.8
2022-10-10T04:21:09.083Z,6.8
2022-10-10T04:22:13.370Z,6.8
2022-10-10T04:23:17.678Z,6.8
2022-10-10T04:24:21.946Z,6.7
2022-10-10T04:25:26.343Z,6.8
2022-10-10T04:26:30.613Z,6.7
2022-10-10T04:27:39.266Z,6.8
2022-10-10T04:28:43.634Z,6.8
2022-10-10T04:29:47.970Z,6.7
2022-10-10T04:30:52.223Z,6.7
2022-10-10T04:31:57.698Z,6.7
2022-10-10T04:33:02.151Z,6.7
2022-10-10T04:34:09.229Z,6.6
2022-10-10T04:35:13.442Z,6.7
2022-10-10T04:36:17.762Z,6.7
2022-10-10T04:37:23.038Z,6.7
2022-10-10T04:38:27.360Z,6.6
2022-10-10T04:39:31.682Z,6.7
2022-10-10T04:40:36.330Z,6.7
2022-10-10T04:41:40.535Z,6.7
2022-10-10T04:42:44.890Z,6.7
2022-10-10T04:43:49.086Z,6.7
2022-10-10T04:44:53.451Z,6.7
2022-10-10T04:45:57.844Z,6.8
2022-10-10T04:47:02.150Z,6.7
2022-10-10T04:48:06.422Z,6.7
2022-10-10T04:49:14.610Z,6.6
2022-10-10T04:50:19.270Z,6.6
2022-10-10T04:51:23.526Z,6.6
2022-10-10T04:52:27.894Z,6.6
2022-10-10T04:53:32.198Z,6.7
2022-10-10T04:57:28.741Z,6.5
2022-10-10T04:58:36.309Z,6.4
2022-10-10T04:59:40.730Z,6.5
2022-10-10T05:00:45.118Z,6.5
2022-10-10T05:01:52.318Z,6.4
2022-10-10T05:02:56.986Z,6.3
2022-10-10T05:04:01.727Z,6.3
2022-10-10T05:05:06.070Z,6.4
2022-10-10T05:06:10.346Z,6.4
2022-10-10T05:07:14.743Z,6.3
2022-10-10T05:08:19.018Z,6.3
2022-10-10T05:09:23.366Z,6.3
2022-10-10T05:11:31.419Z,6.4
2022-10-10T05:12:35.810Z,6.3
2022-10-10T05:13:43.730Z,6.3
2022-10-10T05:14:48.479Z,6.2
2022-10-10T05:15:52.435Z,6.3
2022-10-10T05:16:56.781Z,6.3
2022-10-10T05:18:01.070Z,6.4
2022-10-10T05:19:05.947Z,6.4
2022-10-10T05:20:10.200Z,6.5
2022-10-10T05:21:14.386Z,6.3
2022-10-10T05:22:19.542Z,6.4
2022-10-10T05:23:24.002Z,6.4
2022-10-10T05:24:28.228Z,6.4
2022-10-10T05:25:32.744Z,6.4
2022-10-10T05:26:40.969Z,6.4
2022-10-10T05:27:41.398Z,6.4
2022-10-10T05:28:45.812Z,6.4
2022-10-10T05:29:50.078Z,6.5
2022-10-10T05:30:54.274Z,6.5
2022-10-10T05:31:58.500Z,6.5
2022-10-10T05:33:02.627Z,6.5
2022-10-10T05:34:07.207Z,6.5
2022-10-10T05:35:11.518Z,6.6
2022-10-10T05:36:16.294Z,6.6
2022-10-10T05:37:20.971Z,6.6
2022-10-10T05:38:25.970Z,6.6
2022-10-10T05:39:30.122Z,6.6
2022-10-10T05:40:34.594Z,6.6
2022-10-10T05:41:41.997Z,6.6
2022-10-10T05:42:46.274Z,6.7
2022-10-10T05:43:51.638Z,6.7
2022-10-10T05:44:55.881Z,6.7
2022-10-10T05:46:52.440Z,6.8
2022-10-10T05:47:58.170Z,6.8
2022-10-10T05:49:02.343Z,6.8
2022-10-10T05:50:06.473Z,6.8
2022-10-10T05:51:15.558Z,6.9
2022-10-10T05:52:19.855Z,6.9
2022-10-10T05:53:23.975Z,6.9
2022-10-10T05:54:28.294Z,6.9
2022-10-10T05:55:32.526Z,7
2022-10-10T05:56:36.738Z,7
2022-10-10T05:57:41.203Z,6.9
2022-10-10T05:58:45.399Z,6.9
2022-10-10T05:59:49.694Z,6.9
2022-10-10T06:00:53.964Z,7
2022-10-10T06:03:01.836Z,7.1
2022-10-10T06:04:06.082Z,7.1
2022-10-10T06:05:11.642Z,7.1
2022-10-10T06:06:15.991Z,7.1
2022-10-10T06:07:20.458Z,7
2022-10-10T06:09:28.471Z,7.1
2022-10-10T06:10:32.781Z,7.1
2022-10-10T06:11:37.175Z,7.2
2022-10-10T06:12:41.644Z,7.2
2022-10-10T06:13:46.417Z,7.1
2022-10-10T06:14:50.673Z,7.2
2022-10-10T06:15:54.911Z,7.3
2022-10-10T06:16:59.303Z,7.2
2022-10-10T06:18:03.662Z,7.2
2022-10-10T06:19:11.405Z,7.2
2022-10-10T06:20:12.778Z,7.3
2022-10-10T06:21:17.793Z,7.3
2022-10-10T06:22:22.104Z,7.3
2022-10-10T06:23:26.453Z,7.3
2022-10-10T06:24:30.776Z,7.3
2022-10-10T06:25:40.298Z,7.3
2022-10-10T06:26:39.288Z,7.5
2022-10-10T06:27:43.469Z,7.5
2022-10-10T06:28:47.732Z,7.5
2022-10-10T06:29:52.108Z,7.5
2022-10-10T06:30:56.683Z,7.6
2022-10-10T06:32:00.831Z,7.7
2022-10-10T06:33:05.182Z,7.7
2022-10-10T06:34:09.684Z,7.6
2022-10-10T06:35:14.032Z,7.7
2022-10-10T06:36:18.612Z,7.7
2022-10-10T06:37:23.981Z,7.8
2022-10-10T06:38:28.896Z,7.9
2022-10-10T06:40:36.776Z,7.9
2022-10-10T06:41:41.093Z,8
2022-10-10T06:42:45.383Z,8
2022-10-10T06:43:49.759Z,8.1
2022-10-10T06:44:53.960Z,8.1
2022-10-10T06:45:58.328Z,8.3
2022-10-10T06:47:02.653Z,8.3
2022-10-10T06:48:07.025Z,8.4
2022-10-10T06:49:11.816Z,8.6
2022-10-10T06:50:16.766Z,8.6
2022-10-10T06:51:21.082Z,8.7
2022-10-10T06:52:25.418Z,8.6
2022-10-10T06:53:29.688Z,8.7
2022-10-10T06:54:34.099Z,8.8
2022-10-10T06:55:38.373Z,8.9
2022-10-10T06:56:42.593Z,9
2022-10-10T06:57:46.850Z,9
2022-10-10T06:58:51.350Z,9.1
2022-10-10T07:00:59.374Z,9.3
2022-10-10T07:02:03.776Z,9.4
2022-10-10T07:03:08.242Z,9.4
2022-10-10T07:04:12.801Z,9.6
2022-10-10T07:05:17.513Z,9.7
2022-10-10T07:06:22.229Z,9.8
2022-10-10T07:07:26.717Z,9.9
2022-10-10T07:08:31.157Z,10
2022-10-10T07:09:35.550Z,10.1
2022-10-10T07:10:40.605Z,10.2
2022-10-10T07:11:45.169Z,10.3
2022-10-10T07:12:49.381Z,10.3
2022-10-10T07:13:54.321Z,10.3
2022-10-10T07:14:58.749Z,10.3
2022-10-10T07:16:03.191Z,10.3
2022-10-10T07:17:07.634Z,10.4
2022-10-10T07:18:12.079Z,10.5
2022-10-10T07:19:16.353Z,10.7
2022-10-10T07:20:20.645Z,10.8
2022-10-10T07:21:25.392Z,10.8
2022-10-10T07:22:29.695Z,10.9
2022-10-10T07:23:34.304Z,11
2022-10-10T07:24:38.688Z,11.1
2022-10-10T07:25:43.017Z,11.1
2022-10-10T07:26:47.456Z,11.1
2022-10-10T07:27:52.085Z,11.1
2022-10-10T07:28:56.565Z,11.3
2022-10-10T07:30:00.821Z,11.4
2022-10-10T07:31:05.348Z,11.4
2022-10-10T07:32:09.900Z,11.5
2022-10-10T07:33:14.598Z,11.6
2022-10-10T07:34:18.985Z,11.7
2022-10-10T07:35:23.324Z,11.7
2022-10-10T07:36:28.045Z,11.6
2022-10-10T07:37:32.371Z,11.6
2022-10-10T07:38:36.752Z,11.6
2022-10-10T07:39:41.078Z,11.7
2022-10-10T07:40:45.368Z,11.8
2022-10-10T07:41:50.344Z,11.9
2022-10-10T07:42:54.716Z,11.9
2022-10-10T07:43:59.180Z,11.9
2022-10-10T07:45:03.724Z,12.1
2022-10-10T07:46:09.807Z,12.2
2022-10-10T07:47:17.932Z,12.3
2022-10-10T07:48:22.726Z,12.3
2022-10-10T07:49:27.929Z,12.4
2022-10-10T07:50:32.308Z,12.5
2022-10-10T07:51:36.956Z,12.5
2022-10-10T07:52:44.613Z,12.6
2022-10-10T07:53:48.833Z,12.7
2022-10-10T07:54:53.056Z,12.6
2022-10-10T07:55:57.717Z,12.7
2022-10-10T07:57:01.990Z,12.8
2022-10-10T07:58:06.234Z,12.9
2022-10-10T07:59:13.663Z,12.9
2022-10-10T08:00:18.056Z,12.9
2022-10-10T08:01:22.436Z,13
2022-10-10T08:02:26.712Z,13
2022-10-10T08:03:31.088Z,13
2022-10-10T08:04:35.460Z,13.1
2022-10-10T08:05:39.665Z,13.2
2022-10-10T08:06:44.056Z,13.2
2022-10-10T08:07:48.570Z,13.2
2022-10-10T08:08:52.642Z,13.3
2022-10-10T08:09:56.852Z,13.3
2022-10-10T08:11:01.270Z,13.3
2022-10-10T08:12:05.489Z,13.3
2022-10-10T08:13:09.722Z,13.3
2022-10-10T08:14:13.956Z,13.4
2022-10-10T08:15:18.458Z,13.4
2022-10-10T08:16:22.752Z,13.4
2022-10-10T08:17:27.438Z,13.4
2022-10-10T08:18:31.720Z,13.4
2022-10-10T08:19:36.350Z,13.4
2022-10-10T08:20:40.608Z,13.5
2022-10-10T08:21:45.241Z,13.5
2022-10-10T08:22:49.728Z,13.5
2022-10-10T08:23:53.741Z,13.5
2022-10-10T08:24:57.842Z,13.5
2022-10-10T08:26:02.128Z,13.6
2022-10-10T08:27:06.398Z,13.6
2022-10-10T08:28:10.794Z,13.6
2022-10-10T08:29:15.012Z,13.6
2022-10-10T08:30:19.304Z,13.6
2022-10-10T08:31:23.501Z,13.7
2022-10-10T08:32:28.264Z,13.7
2022-10-10T08:33:32.473Z,13.7
2022-10-10T08:34:36.740Z,13.7
2022-10-10T08:35:42.201Z,13.8
2022-10-10T08:36:46.577Z,13.8
2022-10-10T08:37:50.872Z,13.8
2022-10-10T08:38:55.146Z,13.8
2022-10-10T08:39:59.284Z,13.8
2022-10-10T08:41:03.532Z,13.9
2022-10-10T08:42:07.994Z,13.9
2022-10-10T08:43:14.736Z,13.9
2022-10-10T08:44:19.010Z,13.9
2022-10-10T08:45:23.283Z,13.9
2022-10-10T08:46:27.788Z,13.9
2022-10-10T08:47:37.176Z,13.9
2022-10-10T08:48:44.714Z,13.9
2022-10-10T08:49:49.004Z,14
2022-10-10T08:50:56.068Z,14
2022-10-10T08:52:00.303Z,14
2022-10-10T08:54:16.746Z,14.1
2022-10-10T08:56:29.800Z,14.1
2022-10-10T08:57:34.132Z,13.4
2022-10-10T08:58:43.656Z,13.4
2022-10-10T08:59:47.925Z,13.5
2022-10-10T09:00:52.143Z,13.6
2022-10-10T09:02:17.359Z,13.5
2022-10-10T09:03:18.631Z,13.5
2022-10-10T09:04:27.976Z,13.6
2022-10-10T09:05:32.129Z,13.6
2022-10-10T09:06:41.520Z,13.5
2022-10-10T09:07:53.664Z,13.5
2022-10-10T09:09:00.827Z,13.6
2022-10-10T09:10:13.421Z,13.6
2022-10-10T09:11:27.936Z,13.8
2022-10-10T09:12:37.725Z,13.8
2022-10-10T09:13:49.803Z,13.9
2022-10-10T09:15:02.337Z,13.9
2022-10-10T09:16:09.057Z,14
2022-10-10T09:17:18.544Z,14.1
2022-10-10T09:18:27.793Z,14.3
2022-10-10T09:19:42.192Z,14.4
2022-10-10T09:20:52.396Z,14.5
2022-10-10T09:22:02.170Z,14.5
2022-10-10T09:23:06.458Z,14.5
2022-10-10T09:24:15.887Z,14.6
2022-10-10T09:25:23.407Z,14.7
2022-10-10T09:26:35.940Z,14.8
2022-10-10T09:27:43.521Z,15
2022-10-10T09:28:48.140Z,15
2022-10-10T09:30:03.203Z,15.1
2022-10-10T09:31:18.131Z,15.2
2022-10-10T09:32:30.365Z,15.2
2022-10-10T09:33:34.735Z,15.3
2022-10-10T09:34:40.215Z,15.4
2022-10-10T09:35:49.912Z,15.5
2022-10-10T09:36:57.310Z,15.6
2022-10-10T09:37:59.209Z,15.5
2022-10-10T09:39:03.527Z,15.6
2022-10-10T09:40:13.220Z,15.8
2022-10-10T09:41:27.572Z,15.9
2022-10-10T09:42:32.012Z,16
2022-10-10T09:43:36.276Z,15.9
2022-10-10T09:44:40.520Z,16
2022-10-10T09:45:45.240Z,16.1
2022-10-10T09:46:49.492Z,16.2
2022-10-10T09:47:53.849Z,16.2
2022-10-10T09:49:02.363Z,16.4
2022-10-10T09:50:07.544Z,16.4
2022-10-10T09:51:15.977Z,16.3
2022-10-10T09:52:20.251Z,16.4
2022-10-10T09:53:27.390Z,16.3
2022-10-10T09:54:31.588Z,16.5
2022-10-10T09:55:35.841Z,16.5
2022-10-10T09:56:40.127Z,16.6
2022-10-10T09:57:52.092Z,16.6
2022-10-10T09:58:59.624Z,16.8
2022-10-10T10:00:04.683Z,16.8
2022-10-10T10:01:16.608Z,16.8
2022-10-10T10:02:33.396Z,16.8
2022-10-10T10:03:37.634Z,17
2022-10-10T10:04:42.122Z,17.1
2022-10-10T10:05:46.337Z,17.1
2022-10-10T10:06:56.892Z,17.1
2022-10-10T10:08:03.921Z,17
2022-10-10T10:09:08.260Z,16.7
2022-10-10T10:10:12.362Z,17.1
2022-10-10T10:13:13.810Z,17.5
2022-10-10T10:14:28.325Z,17.4
2022-10-10T10:15:32.657Z,17.5
2022-10-10T10:18:26.689Z,17.2
2022-10-10T10:19:32.385Z,17.3
2022-10-10T10:20:36.473Z,17.5
2022-10-10T10:21:40.581Z,17.6
2022-10-10T10:27:32.013Z,17.6
2022-10-10T10:28:36.259Z,17.7
2022-10-10T10:32:09.736Z,18
2022-10-10T10:33:23.974Z,18
2022-10-10T10:34:38.298Z,18
2022-10-10T10:35:52.625Z,17.9
2022-10-10T10:37:02.065Z,17.7
2022-10-10T10:38:20.681Z,17.9
2022-10-10T10:39:34.981Z,17.7
2022-10-10T10:42:09.484Z,17.7
2022-10-10T10:43:19.052Z,17.7
2022-10-10T10:44:33.354Z,18
2022-10-10T10:45:42.499Z,18.1
2022-10-10T10:46:56.624Z,18
2022-10-10T10:48:03.360Z,18.1
2022-10-10T10:49:19.749Z,18.2
2022-10-10T10:54:06.857Z,18.3
2022-10-10T10:55:16.211Z,18.3
2022-10-10T10:56:26.692Z,18.3
2022-10-10T10:57:45.703Z,18.4
2022-10-10T10:59:10.656Z,18.2
2022-10-10T11:00:21.518Z,18.3
2022-10-10T11:01:20.088Z,18.3
2022-10-10T11:02:43.866Z,18
2022-10-10T11:05:17.103Z,18
2022-10-10T11:05:21.751Z,17.8
2022-10-10T11:06:08.203Z,18.1
2022-10-10T11:07:21.172Z,18.2
2022-10-10T11:08:29.743Z,18.4
2022-10-10T11:09:49.420Z,18.5
2022-10-10T11:10:43.476Z,18.3
2022-10-10T11:13:42.105Z,18.6
2022-10-10T11:14:51.582Z,18.5
2022-10-10T11:16:06.376Z,18.6
2022-10-10T11:17:05.730Z,18.6
2022-10-10T11:18:20.027Z,18.7
2022-10-10T11:21:18.871Z,18.8
2022-10-10T11:23:42.331Z,18.8
2022-10-10T11:24:49.767Z,18.8
2022-10-10T11:26:02.888Z,18.7
2022-10-10T11:27:07.315Z,18.5
2022-10-10T11:28:20.433Z,18.6
2022-10-10T11:29:25.600Z,18.6
2022-10-10T11:30:32.899Z,18.7
2022-10-10T11:31:37.166Z,18.7
2022-10-10T11:32:49.547Z,18.8
2022-10-10T11:33:57.360Z,18.8
2022-10-10T11:35:03.032Z,18.7
2022-10-10T11:36:17.395Z,18.5
2022-10-10T11:37:21.772Z,18.6
2022-10-10T11:38:26.079Z,18.7
2022-10-10T11:39:40.538Z,18.7
2022-10-10T11:40:44.791Z,18.7
2022-10-10T11:41:52.035Z,18.8
2022-10-10T11:42:59.637Z,18.8
2022-10-10T11:44:10.844Z,18.8
2022-10-10T11:45:23.082Z,18.7
2022-10-10T11:46:27.378Z,18.7
2022-10-10T11:47:36.792Z,18.8
2022-10-10T11:48:43.892Z,18.9
2022-10-10T11:50:00.141Z,19
2022-10-10T11:51:11.733Z,19
2022-10-10T11:52:33.447Z,19.1
2022-10-10T11:53:26.031Z,19
2022-10-10T11:54:35.359Z,18.9
2022-10-10T11:55:42.180Z,18.9
2022-10-10T11:56:52.708Z,18.8
2022-10-10T11:57:57.055Z,18.7
2022-10-10T11:59:01.800Z,18.7
2022-10-10T12:00:08.899Z,18.7
2022-10-10T12:01:13.511Z,18.7
2022-10-10T12:02:24.398Z,18.8
2022-10-10T12:05:49.759Z,18.5
2022-10-10T12:07:09.187Z,18.5
2022-10-10T12:08:18.571Z,18.6
2022-10-10T12:09:24.208Z,18.6
2022-10-10T12:10:31.287Z,18.6
2022-10-10T12:13:36.611Z,18.7
2022-10-10T12:14:41.635Z,18.9
2022-10-10T12:17:44.027Z,18.9
2022-10-10T12:18:48.684Z,18.9
2022-10-10T12:19:52.866Z,18.8
2022-10-10T12:20:57.740Z,18.8
2022-10-10T12:22:07.799Z,18.7
2022-10-10T12:23:12.004Z,18.7
2022-10-10T12:24:23.824Z,18.8
2022-10-10T12:25:28.291Z,18.6
2022-10-10T12:26:35.552Z,18.7
2022-10-10T12:27:44.764Z,18.7
2022-10-10T12:28:59.139Z,18.7
2022-10-10T12:30:06.256Z,18.8
2022-10-10T12:31:10.512Z,18.9
2022-10-10T12:32:17.638Z,18.8
2022-10-10T12:33:21.994Z,18.8
2022-10-10T12:34:33.679Z,18.8
2022-10-10T12:35:43.872Z,18.9
2022-10-10T12:36:52.231Z,19
2022-10-10T12:38:00.103Z,18.9
2022-10-10T12:39:10.984Z,19
2022-10-10T12:40:15.241Z,19
2022-10-10T12:41:19.525Z,19
2022-10-10T12:42:27.664Z,18.9
2022-10-10T12:43:34.319Z,18.9
2022-10-10T12:44:44.046Z,19
2022-10-10T12:45:48.956Z,19
2022-10-10T12:47:06.973Z,18.8
2022-10-10T12:48:14.195Z,18.8
2022-10-10T12:49:18.389Z,18.7
2022-10-10T12:50:25.557Z,18.9
2022-10-10T12:51:32.199Z,18.8
2022-10-10T12:52:37.340Z,18.8
2022-10-10T12:53:47.131Z,18.9
2022-10-10T12:54:54.561Z,18.8
2022-10-10T12:56:05.383Z,18.9
2022-10-10T12:57:09.659Z,18.9
2022-10-10T12:58:26.001Z,18.9
2022-10-10T12:59:28.842Z,18.9
2022-10-10T13:01:03.849Z,18.9
2022-10-10T13:02:07.839Z,18.7
2022-10-10T13:03:17.059Z,18.6
2022-10-10T13:04:27.095Z,18.7
2022-10-10T13:05:31.372Z,18.6
2022-10-10T13:06:35.692Z,18.6
2022-10-10T13:07:42.778Z,18.6
2022-10-10T13:08:49.411Z,18.7
2022-10-10T13:09:53.579Z,18.7
2022-10-10T13:10:57.899Z,18.8
2022-10-10T13:12:05.442Z,18.9
2022-10-10T13:13:09.628Z,18.9
2022-10-10T13:14:15.156Z,18.8
2022-10-10T13:15:19.503Z,18.8
2022-10-10T13:16:23.779Z,18.8
2022-10-10T13:17:28.165Z,18.8
2022-10-10T13:18:37.588Z,18.9
2022-10-10T13:19:50.263Z,19
2022-10-10T13:20:54.475Z,19
2022-10-10T13:21:58.829Z,19
2022-10-10T13:23:03.051Z,19
2022-10-10T13:24:07.345Z,19
2022-10-10T13:25:11.728Z,18.9
2022-10-10T13:26:16.079Z,18.9
2022-10-10T13:27:23.126Z,18.9
2022-10-10T13:28:30.394Z,19
2022-10-10T13:29:34.528Z,19
2022-10-10T13:30:39.038Z,18.8
2022-10-10T13:31:43.194Z,18.9
2022-10-10T13:32:47.459Z,18.9
2022-10-10T13:33:54.843Z,18.9
2022-10-10T13:35:09.362Z,18.9
2022-10-10T13:36:13.603Z,18.9
2022-10-10T13:37:20.663Z,18.9
2022-10-10T13:38:28.130Z,18.9
2022-10-10T13:39:37.122Z,19
2022-10-10T13:40:41.519Z,18.9
2022-10-10T13:41:45.784Z,19
2022-10-10T13:42:50.044Z,19
2022-10-10T13:43:54.252Z,19
2022-10-10T13:44:58.472Z,18.9
2022-10-10T13:46:02.738Z,19
2022-10-10T13:47:07.231Z,18.9
2022-10-10T13:48:21.564Z,18.8
2022-10-10T13:49:27.647Z,18.9
2022-10-10T13:50:31.949Z,18.9
2022-10-10T13:51:41.124Z,18.9
2022-10-10T13:52:45.557Z,18.8
2022-10-10T13:53:49.787Z,18.8
2022-10-10T13:54:54.014Z,18.7
2022-10-10T13:55:58.166Z,18.9
2022-10-10T13:57:07.562Z,18.9
2022-10-10T13:58:19.316Z,19
2022-10-10T13:59:26.618Z,18.9
2022-10-10T14:00:30.839Z,18.9
2022-10-10T14:01:35.048Z,18.9
2022-10-10T14:02:45.913Z,18.8
2022-10-10T14:03:50.026Z,18.8
2022-10-10T14:04:57.366Z,18.8
2022-10-10T14:06:04.467Z,18.9
2022-10-10T14:07:09.979Z,18.8
2022-10-10T14:08:22.071Z,18.7
2022-10-10T14:09:29.117Z,18.8
2022-10-10T14:10:33.339Z,18.8
2022-10-10T14:11:37.507Z,18.8
2022-10-10T14:12:44.657Z,18.7
2022-10-10T14:13:51.682Z,18.8
2022-10-10T14:15:01.911Z,18.8
2022-10-10T14:16:06.428Z,18.8
2022-10-10T14:17:15.694Z,18.8
2022-10-10T14:18:19.945Z,18.8
2022-10-10T14:19:24.240Z,18.6
2022-10-10T14:20:28.499Z,18.5
2022-10-10T14:21:32.846Z,18.5
2022-10-10T14:22:37.046Z,18.6
2022-10-10T14:23:41.398Z,18.6
2022-10-10T14:24:45.711Z,18.6
2022-10-10T14:26:57.679Z,18.7
2022-10-10T14:28:04.574Z,18.3
2022-10-10T14:29:18.920Z,18.4
2022-10-10T14:30:23.476Z,18.4
2022-10-10T14:31:27.982Z,18.4
2022-10-10T14:32:32.186Z,18.5
2022-10-10T14:33:36.381Z,18.4
2022-10-10T14:34:40.476Z,18.4
2022-10-10T14:35:44.678Z,18.4
2022-10-10T14:36:48.989Z,18.3
2022-10-10T14:37:57.555Z,18.3
2022-10-10T14:39:01.840Z,18.4
2022-10-10T14:40:06.051Z,18.3
2022-10-10T14:41:15.390Z,18.3
2022-10-10T14:42:19.566Z,18.2
2022-10-10T14:43:23.738Z,18.3
2022-10-10T14:44:28.631Z,18.3
2022-10-10T14:45:32.903Z,18.2
2022-10-10T14:46:38.787Z,18.2
2022-10-10T14:47:42.948Z,18.3
2022-10-10T14:48:47.494Z,18.3
2022-10-10T14:49:51.646Z,18.2
2022-10-10T14:50:55.946Z,18.3
2022-10-10T14:52:00.563Z,18.1
2022-10-10T14:53:04.950Z,18
2022-10-10T14:54:10.462Z,17.9
2022-10-10T14:56:17.423Z,17.9
2022-10-10T14:57:21.540Z,18
2022-10-10T14:58:26.007Z,17.9
2022-10-10T14:59:46.898Z,17.9
2022-10-10T15:00:34.587Z,17.8
2022-10-10T15:01:39.392Z,17.9
2022-10-10T15:02:45.701Z,17.8
2022-10-10T15:03:47.763Z,17.8
2022-10-10T15:04:52.075Z,17.8
2022-10-10T15:05:56.420Z,17.8
2022-10-10T15:08:04.346Z,17.7
2022-10-10T15:09:21.910Z,17.8
2022-10-10T15:10:33.038Z,17.7
2022-10-10T15:11:17.293Z,17.8
2022-10-10T15:12:21.618Z,17.7
2022-10-10T15:13:26.225Z,17.6
2022-10-10T15:14:33.104Z,17.4
2022-10-10T15:15:37.590Z,17.6
2022-10-10T15:16:41.838Z,17.6
2022-10-10T15:17:46.101Z,17.4
2022-10-10T15:18:54.580Z,17.3
2022-10-10T15:19:54.901Z,17.4
2022-10-10T15:20:59.289Z,17.4
2022-10-10T15:22:03.302Z,17.4
2022-10-10T15:23:07.707Z,17.4
2022-10-10T15:24:11.826Z,17.3
2022-10-10T15:25:16.166Z,17.4
2022-10-10T15:27:23.985Z,17.4
2022-10-10T15:28:31.142Z,17.4
2022-10-10T15:29:35.409Z,17.4
2022-10-10T15:30:43.001Z,17.3
2022-10-10T15:31:47.049Z,17.2
2022-10-10T15:32:51.093Z,17.3
2022-10-10T15:33:55.253Z,17.2
2022-10-10T15:34:59.501Z,17.2
2022-10-10T15:36:09.318Z,17.1
2022-10-10T15:37:08.596Z,17.1
2022-10-10T15:38:12.971Z,17
2022-10-10T15:39:17.293Z,17
2022-10-10T15:40:21.845Z,16.9
2022-10-10T15:41:26.158Z,17
2022-10-10T15:42:30.377Z,16.9
2022-10-10T15:43:34.671Z,16.8
2022-10-10T15:44:41.605Z,16.8
2022-10-10T15:45:55.715Z,16.9
2022-10-10T15:46:50.326Z,16.8
2022-10-10T15:47:54.569Z,16.8
2022-10-10T15:48:58.781Z,16.6
2022-10-10T15:50:03.050Z,16.7
2022-10-10T15:51:07.578Z,16.7
2022-10-10T15:52:11.758Z,16.6